createdAt,value
2023-02-14T00:01:23.836Z,94520.34
2023-02-14T00:04:27.546Z,94514.25
2023-02-14T00:07:32.543Z,94521.38
2023-02-14T00:10:35.588Z,94519.81
2023-02-14T00:13:39.688Z,94521.66
2023-02-14T00:16:43.793Z,94532.78
2023-02-14T00:19:47.572Z,94516.25
2023-02-14T00:22:51.713Z,94519.78
2023-02-14T00:25:55.337Z,94522.06
2023-02-14T00:28:59.156Z,94522.88
2023-02-14T00:32:02.685Z,94511.34
2023-02-14T00:35:07.915Z,94513.72
2023-02-14T00:38:10.930Z,94510.09
2023-02-14T00:41:19.819Z,94501.66
2023-02-14T00:44:23.532Z,94513.00
2023-02-14T00:47:27.106Z,94514.97
2023-02-14T00:50:30.884Z,94515.00
2023-02-14T00:53:35.028Z,94511.59
2023-02-14T00:56:39.054Z,94510.81
2023-02-14T00:59:42.053Z,94515.16
2023-02-14T01:02:45.166Z,94518.13
2023-02-14T01:05:50.949Z,94515.69
2023-02-14T01:08:54.320Z,94513.66
2023-02-14T01:11:58.022Z,94509.72
2023-02-14T01:15:01.338Z,94513.72
2023-02-14T01:18:04.513Z,94511.78
2023-02-14T01:21:24.399Z,94520.56
2023-02-14T01:24:28.094Z,94511.22
2023-02-14T01:27:32.125Z,94524.16
2023-02-14T01:30:37.581Z,94534.03
2023-02-14T01:33:43.506Z,94524.84
2023-02-14T01:36:46.620Z,94512.19
2023-02-14T01:39:50.404Z,94520.97
2023-02-14T01:42:54.437Z,94514.91
2023-02-14T01:45:59.450Z,94517.53
2023-02-14T01:49:21.365Z,94517.03
2023-02-14T01:52:37.351Z,94520.78
2023-02-14T01:55:45.260Z,94510.91
2023-02-14T01:58:52.698Z,94510.91
2023-02-14T02:01:57.126Z,94509.03
2023-02-14T02:05:00.208Z,94494.25
2023-02-14T02:08:05.102Z,94508.81
2023-02-14T02:11:08.977Z,94503.19
2023-02-14T02:14:19.311Z,94500.47
2023-02-14T02:17:28.916Z,94497.66
2023-02-14T02:20:51.186Z,94498.16
2023-02-14T02:24:22.358Z,94490.72
2023-02-14T02:28:02.777Z,94479.75
2023-02-14T02:31:31.096Z,94487.19
2023-02-14T02:35:12.347Z,94476.06
2023-02-14T02:38:24.564Z,94470.41
2023-02-14T02:41:53.764Z,94458.00
2023-02-14T02:45:14.560Z,94451.50
2023-02-14T02:48:24.715Z,94458.78
2023-02-14T02:51:56.415Z,94444.94
2023-02-14T02:55:08.028Z,94451.91
2023-02-14T02:58:11.162Z,94440.47
2023-02-14T03:01:22.998Z,94446.03
2023-02-14T03:04:46.026Z,94442.97
2023-02-14T03:07:49.904Z,94434.94
2023-02-14T03:10:54.435Z,94431.69
2023-02-14T03:14:20.941Z,94428.72
2023-02-14T03:17:37.518Z,94410.81
2023-02-14T03:21:08.829Z,94408.03
2023-02-14T03:24:25.696Z,94403.94
2023-02-14T03:27:41.938Z,94406.56
2023-02-14T03:31:14.490Z,94388.91
2023-02-14T03:34:37.822Z,94385.13
2023-02-14T03:38:06.658Z,94379.91
2023-02-14T03:41:15.640Z,94364.84
2023-02-14T03:44:22.982Z,94372.25
2023-02-14T03:47:31.437Z,94355.69
2023-02-14T03:50:37.458Z,94350.53
2023-02-14T03:53:45.761Z,94340.72
2023-02-14T03:56:53.036Z,94332.47
2023-02-14T03:59:57.066Z,94331.19
2023-02-14T04:03:07.191Z,94330.72
2023-02-14T04:06:10.896Z,94318.72
2023-02-14T04:09:14.253Z,94323.91
2023-02-14T04:12:26.456Z,94309.59
2023-02-14T04:15:36.630Z,94294.91
2023-02-14T04:18:58.412Z,94289.00
2023-02-14T04:22:01.497Z,94293.91
2023-02-14T04:25:04.648Z,94291.22
2023-02-14T04:28:08.729Z,94279.69
2023-02-14T04:31:12.150Z,94280.50
2023-02-14T04:34:15.998Z,94280.50
2023-02-14T04:37:20.257Z,94272.38
2023-02-14T04:40:23.444Z,94265.22
2023-02-14T04:43:26.599Z,94266.09
2023-02-14T04:46:30.311Z,94252.44
2023-02-14T04:49:33.458Z,94252.94
2023-02-14T04:52:37.214Z,94239.97
2023-02-14T04:55:41.308Z,94248.91
2023-02-14T04:58:44.290Z,94239.75
2023-02-14T05:01:47.352Z,94235.16
2023-02-14T05:04:51.530Z,94233.38
2023-02-14T05:07:55.154Z,94232.94
2023-02-14T05:10:58.749Z,94224.72
2023-02-14T05:14:02.369Z,94232.09
2023-02-14T05:17:06.056Z,94212.41
2023-02-14T05:20:10.645Z,94220.06
2023-02-14T05:23:14.234Z,94212.50
2023-02-14T05:26:17.313Z,94197.03
2023-02-14T05:29:20.562Z,94193.25
2023-02-14T05:32:24.588Z,94187.00
2023-02-14T05:35:28.432Z,94187.53
2023-02-14T05:38:31.645Z,94183.72
2023-02-14T05:41:35.258Z,94179.13
2023-02-14T05:44:39.053Z,94171.22
2023-02-14T05:47:42.643Z,94168.91
2023-02-14T05:50:46.117Z,94158.47
2023-02-14T05:53:49.596Z,94166.75
2023-02-14T05:56:52.522Z,94166.91
2023-02-14T05:59:56.524Z,94158.06
2023-02-14T06:03:00.143Z,94159.84
2023-02-14T06:06:03.769Z,94153.63
2023-02-14T06:09:06.870Z,94149.84
2023-02-14T06:12:10.346Z,94141.16
2023-02-14T06:15:14.123Z,94150.69
2023-02-14T06:18:17.369Z,94153.63
2023-02-14T06:21:20.665Z,94136.78
2023-02-14T06:24:23.694Z,94140.38
2023-02-14T06:27:26.702Z,94127.19
2023-02-14T06:30:30.450Z,94125.16
2023-02-14T06:33:33.660Z,94127.75
2023-02-14T06:36:37.238Z,94125.81
2023-02-14T06:39:40.416Z,94117.50
2023-02-14T06:42:43.678Z,94115.66
2023-02-14T06:45:48.722Z,94109.00
2023-02-14T06:48:51.714Z,94109.72
2023-02-14T06:51:55.521Z,94108.22
2023-02-14T06:54:59.482Z,94107.88
2023-02-14T06:58:03.171Z,94097.88
2023-02-14T07:01:06.824Z,94102.66
2023-02-14T07:04:10.163Z,94100.50
2023-02-14T07:07:14.183Z,94094.41
2023-02-14T07:10:17.817Z,94083.41
2023-02-14T07:13:21.259Z,94084.31
2023-02-14T07:16:24.299Z,94075.53
2023-02-14T07:19:27.350Z,94074.50
2023-02-14T07:22:31.054Z,94085.97
2023-02-14T07:25:35.295Z,94081.78
2023-02-14T07:28:39.050Z,94084.47
2023-02-14T07:31:42.651Z,94084.59
2023-02-14T07:34:46.241Z,94076.34
2023-02-14T07:37:51.184Z,94084.69
2023-02-14T07:40:55.003Z,94081.00
2023-02-14T07:43:58.444Z,94087.59
2023-02-14T07:47:02.612Z,94089.09
2023-02-14T07:50:06.121Z,94078.91
2023-02-14T07:53:10.237Z,94073.38
2023-02-14T07:56:13.924Z,94068.06
2023-02-14T07:59:18.266Z,94063.03
2023-02-14T08:02:22.124Z,94059.19
2023-02-14T08:05:26.252Z,94059.00
2023-02-14T08:08:31.940Z,94051.44
2023-02-14T08:11:53.834Z,94045.22
2023-02-14T08:15:17.219Z,94047.47
2023-02-14T08:18:23.975Z,94042.06
2023-02-14T08:21:27.043Z,94053.63
2023-02-14T08:24:30.268Z,94043.84
2023-02-14T08:27:33.196Z,94044.06
2023-02-14T08:30:40.987Z,94043.56
2023-02-14T08:33:45.510Z,94053.34
2023-02-14T08:36:49.468Z,94041.34
2023-02-14T08:39:53.351Z,94039.94
2023-02-14T08:42:57.116Z,94036.25
2023-02-14T08:46:02.817Z,94040.19
2023-02-14T08:49:07.078Z,94039.50
2023-02-14T08:52:11.037Z,94035.78
2023-02-14T08:55:15.129Z,94019.72
2023-02-14T08:58:18.065Z,94021.00
2023-02-14T09:01:21.352Z,94014.31
2023-02-14T09:04:25.581Z,94007.72
2023-02-14T09:07:28.661Z,94000.78
2023-02-14T09:10:32.108Z,94001.09
2023-02-14T09:13:35.153Z,93994.41
2023-02-14T09:16:38.662Z,93992.91
2023-02-14T09:19:42.851Z,93977.41
2023-02-14T09:22:48.667Z,93981.75
2023-02-14T09:25:51.881Z,93973.41
2023-02-14T09:28:55.615Z,93978.91
2023-02-14T09:32:01.128Z,93977.28
2023-02-14T09:35:04.973Z,93979.13
2023-02-14T09:38:20.143Z,93975.56
2023-02-14T09:41:31.591Z,93969.84
2023-02-14T09:44:45.900Z,93974.44
2023-02-14T09:47:56.014Z,93968.88
2023-02-14T09:51:08.093Z,93957.28
2023-02-14T09:54:21.393Z,93957.78
2023-02-14T09:57:24.683Z,93949.97
2023-02-14T10:00:49.485Z,93949.31
2023-02-14T10:04:01.017Z,93953.13
2023-02-14T10:07:25.745Z,93950.53
2023-02-14T10:10:39.512Z,93955.94
2023-02-14T10:13:49.369Z,93951.63
2023-02-14T10:17:10.160Z,93945.69
2023-02-14T10:20:33.006Z,93943.41
2023-02-14T10:23:46.173Z,93951.94
2023-02-14T10:26:51.422Z,93945.47
2023-02-14T10:29:55.194Z,93953.09
2023-02-14T10:33:25.040Z,93952.97
2023-02-14T10:36:45.688Z,93957.47
2023-02-14T10:40:00.444Z,93959.25
2023-02-14T10:43:22.262Z,93965.16
2023-02-14T10:46:44.628Z,93965.81
2023-02-14T10:50:13.850Z,93967.41
2023-02-14T10:53:17.947Z,93968.63
2023-02-14T10:56:33.362Z,93968.03
2023-02-14T10:59:55.383Z,93965.44
2023-02-14T11:03:01.390Z,93962.84
2023-02-14T11:06:04.823Z,93964.44
2023-02-14T11:09:08.008Z,93964.56
2023-02-14T11:12:11.753Z,93954.72
2023-02-14T11:15:15.293Z,93961.44
2023-02-14T11:18:32.678Z,93964.22
2023-02-14T11:21:40.830Z,93957.31
2023-02-14T11:24:46.352Z,93953.97
2023-02-14T11:27:55.569Z,93960.91
2023-02-14T11:31:00.362Z,93958.91
2023-02-14T11:34:37.217Z,93965.72
2023-02-14T11:37:49.597Z,93962.00
2023-02-14T11:41:01.465Z,93970.84
2023-02-14T11:44:23.502Z,93966.84
2023-02-14T11:47:31.296Z,93951.19
2023-02-14T11:50:36.177Z,93952.75
2023-02-14T11:53:54.619Z,93960.66
2023-02-14T11:57:14.826Z,93954.25
2023-02-14T12:00:22.638Z,93957.00
2023-02-14T12:03:32.352Z,93959.44
2023-02-14T12:06:38.869Z,93962.56
2023-02-14T12:09:44.368Z,93962.94
2023-02-14T12:12:53.863Z,93968.47
2023-02-14T12:16:00.006Z,93966.16
2023-02-14T12:19:08.589Z,93961.91
2023-02-14T12:22:17.619Z,93964.69
2023-02-14T12:25:28.435Z,93961.09
2023-02-14T12:28:43.520Z,93951.94
2023-02-14T12:31:49.590Z,93965.16
2023-02-14T12:35:18.690Z,93959.19
2023-02-14T12:38:33.901Z,93964.69
2023-02-14T12:41:54.468Z,93949.34
2023-02-14T12:45:18.320Z,93956.94
2023-02-14T12:48:25.561Z,93956.44
2023-02-14T12:51:44.849Z,93952.25
2023-02-14T12:55:17.770Z,93948.16
2023-02-14T12:58:33.245Z,93943.81
2023-02-14T13:01:45.455Z,93946.69
2023-02-14T13:05:13.669Z,93943.66
2023-02-14T13:08:44.076Z,93942.38
2023-02-14T13:12:15.825Z,93936.06
2023-02-14T13:15:37.432Z,93946.28
2023-02-14T13:18:48.215Z,93944.22
2023-02-14T13:21:53.414Z,93938.47
2023-02-14T13:25:00.816Z,93942.66
2023-02-14T13:28:08.792Z,93950.06
2023-02-14T13:31:12.866Z,93940.31
2023-02-14T13:34:37.753Z,93936.81
2023-02-14T13:37:47.547Z,93939.72
2023-02-14T13:40:52.624Z,93937.44
2023-02-14T13:44:03.097Z,93941.94
2023-02-14T13:47:08.816Z,93941.25
2023-02-14T13:50:22.962Z,93942.47
2023-02-14T13:53:35.138Z,93924.25
2023-02-14T13:56:39.793Z,93926.78
2023-02-14T13:59:43.146Z,93917.84
2023-02-14T14:02:48.718Z,93922.53
2023-02-14T14:06:01.743Z,93918.53
2023-02-14T14:09:06.352Z,93924.25
2023-02-14T14:12:27.668Z,93922.91
2023-02-14T14:15:31.602Z,93917.84
2023-02-14T14:18:43.304Z,93918.16
2023-02-14T14:22:09.550Z,93912.75
2023-02-14T14:25:15.588Z,93910.41
2023-02-14T14:28:27.479Z,93897.91
2023-02-14T14:31:30.805Z,93903.63
2023-02-14T14:34:34.464Z,93894.72
2023-02-14T14:37:47.719Z,93900.31
2023-02-14T14:40:51.809Z,93895.31
2023-02-14T14:43:54.897Z,93893.34
2023-02-14T14:47:00.863Z,93892.84
2023-02-14T14:50:10.760Z,93880.84
2023-02-14T14:53:42.523Z,93891.06
2023-02-14T14:57:03.576Z,93887.69
2023-02-14T15:00:29.841Z,93890.97
2023-02-14T15:03:33.180Z,93884.91
2023-02-14T15:06:36.689Z,93882.09
2023-02-14T15:09:43.201Z,93881.81
2023-02-14T15:13:05.807Z,93872.63
2023-02-14T15:16:09.092Z,93872.41
2023-02-14T15:19:19.640Z,93868.34
2023-02-14T15:22:27.561Z,93863.25
2023-02-14T15:25:34.323Z,93873.72
2023-02-14T15:28:39.036Z,93873.09
2023-02-14T15:31:43.011Z,93881.81
2023-02-14T15:34:46.214Z,93872.78
2023-02-14T15:37:51.449Z,93872.00
2023-02-14T15:40:55.351Z,93876.78
2023-02-14T15:44:00.815Z,93868.78
2023-02-14T15:47:06.319Z,93864.53
2023-02-14T15:50:24.349Z,93862.56
2023-02-14T15:53:49.358Z,93863.31
2023-02-14T15:56:57.597Z,93868.31
2023-02-14T16:00:17.905Z,93868.09
2023-02-14T16:03:36.592Z,93865.84
2023-02-14T16:06:50.216Z,93864.16
2023-02-14T16:10:22.015Z,93867.44
2023-02-14T16:13:33.981Z,93877.00
2023-02-14T16:17:00.122Z,93880.50
2023-02-14T16:20:36.981Z,93883.63
2023-02-14T16:23:40.904Z,93876.72
2023-02-14T16:26:46.460Z,93868.31
2023-02-14T16:29:51.076Z,93866.91
2023-02-14T16:32:57.623Z,93867.84
2023-02-14T16:36:10.308Z,93864.06
2023-02-14T16:39:19.593Z,93863.50
2023-02-14T16:42:24.057Z,93855.22
2023-02-14T16:45:27.797Z,93854.53
2023-02-14T16:48:31.800Z,93860.16
2023-02-14T16:51:36.102Z,93857.84
2023-02-14T16:54:39.525Z,93848.44
2023-02-14T16:57:46.947Z,93847.75
2023-02-14T17:00:50.146Z,93840.22
2023-02-14T17:03:54.000Z,93832.47
2023-02-14T17:06:58.478Z,93829.44
2023-02-14T17:10:06.513Z,93824.84
2023-02-14T17:13:11.744Z,93828.53
2023-02-14T17:16:16.601Z,93825.66
2023-02-14T17:19:20.181Z,93826.19
2023-02-14T17:22:23.049Z,93837.31
2023-02-14T17:25:26.618Z,93843.31
2023-02-14T17:28:30.579Z,93836.25
2023-02-14T17:31:37.410Z,93832.00
2023-02-14T17:34:41.618Z,93840.84
2023-02-14T17:37:46.164Z,93842.69
2023-02-14T17:40:49.071Z,93838.81
2023-02-14T17:43:55.772Z,93844.22
2023-02-14T17:46:59.508Z,93825.75
2023-02-14T17:50:04.319Z,93827.41
2023-02-14T17:53:08.102Z,93831.31
2023-02-14T17:56:18.640Z,93829.91
2023-02-14T17:59:21.957Z,93829.63
2023-02-14T18:02:26.465Z,93823.66
2023-02-14T18:05:29.443Z,93824.19
2023-02-14T18:08:38.296Z,93823.94
2023-02-14T18:11:42.887Z,93815.72
2023-02-14T18:14:47.104Z,93820.38
2023-02-14T18:17:51.573Z,93812.44
2023-02-14T18:20:57.301Z,93822.28
2023-02-14T18:24:01.992Z,93812.06
2023-02-14T18:27:06.950Z,93814.84
2023-02-14T18:30:11.464Z,93817.00
2023-02-14T18:33:15.812Z,93816.50
2023-02-14T18:36:24.682Z,93814.63
2023-02-14T18:39:27.772Z,93813.94
2023-02-14T18:42:30.886Z,93811.84
2023-02-14T18:45:38.740Z,93815.81
2023-02-14T18:48:42.718Z,93810.19
2023-02-14T18:51:46.373Z,93807.63
2023-02-14T18:54:49.962Z,93818.63
2023-02-14T18:57:54.309Z,93814.00
2023-02-14T19:00:58.436Z,93817.56
2023-02-14T19:04:02.160Z,93809.34
2023-02-14T19:07:05.255Z,93811.72
2023-02-14T19:10:10.169Z,93814.59
2023-02-14T19:13:13.402Z,93812.69
2023-02-14T19:16:21.453Z,93810.31
2023-02-14T19:19:24.643Z,93815.47
2023-02-14T19:22:28.769Z,93810.56
2023-02-14T19:25:33.254Z,93808.00
2023-02-14T19:28:36.256Z,93811.53
2023-02-14T19:31:43.025Z,93807.06
2023-02-14T19:34:46.581Z,93808.94
2023-02-14T19:37:53.936Z,93806.09
2023-02-14T19:41:00.042Z,93803.78
2023-02-14T19:44:06.145Z,93807.28
2023-02-14T19:47:26.885Z,93804.28
2023-02-14T19:50:31.826Z,93808.47
2023-02-14T19:53:36.893Z,93797.69
2023-02-14T19:56:43.182Z,93794.66
2023-02-14T19:59:47.205Z,93778.50
2023-02-14T20:02:52.424Z,93796.06
2023-02-14T20:05:56.419Z,93782.50
2023-02-14T20:09:00.285Z,93785.31
2023-02-14T20:12:04.043Z,93775.72
2023-02-14T20:15:10.577Z,93772.91
2023-02-14T20:18:14.930Z,93764.00
2023-02-14T20:21:20.057Z,93765.16
2023-02-14T20:24:30.279Z,93769.84
2023-02-14T20:27:33.980Z,93769.38
2023-02-14T20:30:40.917Z,93766.31
2023-02-14T20:33:44.640Z,93761.66
2023-02-14T20:36:56.561Z,93759.13
2023-02-14T20:39:59.516Z,93763.16
2023-02-14T20:43:02.895Z,93760.13
2023-02-14T20:46:07.561Z,93752.16
2023-02-14T20:49:12.267Z,93756.16
2023-02-14T20:52:15.535Z,93757.06
2023-02-14T20:55:18.794Z,93752.16
2023-02-14T20:58:21.834Z,93745.16
2023-02-14T21:01:25.892Z,93749.84
2023-02-14T21:04:30.068Z,93746.81
2023-02-14T21:07:34.121Z,93746.81
2023-02-14T21:10:37.200Z,93751.72
2023-02-14T21:13:41.458Z,93757.56
2023-02-14T21:16:44.576Z,93759.19
2023-02-14T21:19:47.895Z,93750.75
2023-02-14T21:22:50.863Z,93752.84
2023-02-14T21:25:54.917Z,93754.72
2023-02-14T21:28:58.613Z,93760.06
2023-02-14T21:32:03.906Z,93761.47
2023-02-14T21:35:07.355Z,93757.72
2023-02-14T21:38:11.472Z,93763.06
2023-02-14T21:41:16.901Z,93751.56
2023-02-14T21:44:39.724Z,93756.25
2023-02-14T21:47:42.763Z,93753.47
2023-02-14T21:50:46.712Z,93754.34
2023-02-14T21:53:50.438Z,93760.44
2023-02-14T21:56:53.418Z,93753.88
2023-02-14T21:59:57.074Z,93753.88
2023-02-14T22:03:00.390Z,93755.03
2023-02-14T22:06:05.794Z,93751.31
2023-02-14T22:09:11.370Z,93758.56
2023-02-14T22:12:14.347Z,93759.25
2023-02-14T22:15:18.109Z,93759.97
2023-02-14T22:18:21.754Z,93753.19
2023-02-14T22:21:27.503Z,93759.00
2023-02-14T22:24:30.655Z,93762.47
2023-02-14T22:27:38.466Z,93758.72
2023-02-14T22:30:41.384Z,93755.84
2023-02-14T22:33:46.601Z,93759.78
2023-02-14T22:36:50.138Z,93765.06
2023-02-14T22:39:53.690Z,93759.88
2023-02-14T22:42:58.552Z,93759.19
2023-02-14T22:46:11.107Z,93762.69
2023-02-14T22:49:14.906Z,93759.88
2023-02-14T22:52:18.213Z,93758.66
2023-02-14T22:55:22.379Z,93759.88
2023-02-14T22:58:26.851Z,93754.09
2023-02-14T23:01:29.919Z,93779.72
2023-02-14T23:04:33.320Z,93768.03
2023-02-14T23:07:36.427Z,93774.34
2023-02-14T23:10:39.409Z,93783.22
2023-02-14T23:14:02.113Z,93776.00
2023-02-14T23:17:15.164Z,93785.59
2023-02-14T23:20:37.520Z,93780.66
2023-02-14T23:23:41.291Z,93781.63
2023-02-14T23:26:45.272Z,93789.00
2023-02-14T23:29:48.878Z,93773.44
2023-02-14T23:32:52.942Z,93792.59
2023-02-14T23:35:56.299Z,93791.91
2023-02-14T23:38:59.301Z,93795.78
2023-02-14T23:42:06.700Z,93798.75
2023-02-14T23:45:28.900Z,93793.91
2023-02-14T23:48:33.031Z,93800.41
2023-02-14T23:51:37.112Z,93793.88
2023-02-14T23:54:41.066Z,93799.34
2023-02-14T23:57:45.607Z,93793.13
